Airfield :
LOGIN :

Register | Disclaimer

   EN    FR    IT 

 










Legend :    VFR   Marginal VFR   IFR   Intensive IFR   Very Intensive IFR
Visi :
Ceiling :
>= 8 km
>= 3000ft
5 to 8 km
1000 to 3000 ft
1500m to 5 km
500 to 1000 ft
800 to 1500m
200 to 500 ft
< 800m
< 200 ft
Symbols :   Thunderstorms  Fog  Heavy snow  Heavy precipitations  Wind > 20 kt
SIGMETs :     Misc.  Thunderstorms  Icing  Turbulence  Mountain Waves  Volcanic Ashes







- Airport Elevation : 160 ft
- IATA code : LRT
- Download approach charts


LFRH - Lorient Lann Bihoue

CURRENT METAR :
  • 220600Z AUTO 04005KT 5000 BR NSC 05/04 Q1028 NOSIG

EXPIRED METARs :
  • 220530Z AUTO 04006KT 6000 NSC 05/04 Q1028 TEMPO 4000 BR
  • 220500Z AUTO 04004KT 6000 NSC 05/05 Q1028 TEMPO 0500 FG VV///
  • 220430Z AUTO 06005KT 6000 NSC 05/05 Q1028 TEMPO 0500 FG VV///
  • 220400Z AUTO 08006KT 6000 NSC 06/05 Q1028 TEMPO 0500 FG VV///
  • 220330Z AUTO 08006KT 7000 NSC 06/05 Q1028 TEMPO 0500 FG VV///

TAF AMD TAF LFRH
Valid from the 22 at 06:00 until the 23 at 06:00 UTC


220519Z 2206/2306 04005KT 6000 NSC
PROB40
TEMPO 2206/2208 4000 BR
BECMG 2208/2210 CAVOK
BECMG 2210/2212 18010KT
BECMG 2216/2218 26005KT
BECMG 2218/2220 2000 BR
BECMG 2222/2224 03010KT
BECMG 2302/2304 9999 NSW
No reported NOTAMs for that airfield.



MET'MAP, your aeronautical weather chart ! - Copyright ORBIFLY December 2007 - Disclaimer

ORBIFLY MET'MAP TEAM :

Programming & Development : Alexandra Zaïnal
Concept & Development : Baudouin d'Aumeries
Co-Development & Prog : Marc-Olivier Méhu
Technical & hardware support : Manuel Goepfert

Contact : metmap@orbifly.com




SOURCES & CREDITS :

   NOAA